Jewel Of The Seas — C6FW9 — position and weather

sailwx.info

Track history (hours):
 
Tides and Currents Weather Stations Pressure Air Temp Water Temp Dewpoint Dewpoint Depression Visibility Wind Speed Wind Dir Waves Ship Positions

Jewel Of The Seas

Operator: Royal Caribbean Cruises Ltd

Last reported at 2018-Jun-21 18:19 UTC. Time now 2018-Jun-22 08:44 UTC.
Position N 37°12' E 023°41'.

Length 290 m; draft 8.6 m.

Type: Passenger vessel. MMSI: 311583000.

Date/timePositionNaut miles runAvg speedWind from/ knotsBaromVisibWave heightAir tempDewpointWater temp
2018-Jun-21 18:19N 37°12' E 023°41'515.7
2018-Jun-21 17:58N 37°17' E 023°43'1316.1
2018-Jun-21 17:10N 37°30' E 023°44'416.1
2018-Jun-21 16:55N 37°33' E 023°43'715.7
2018-Jun-21 16:31N 37°40' E 023°42'816.2
2018-Jun-21 16:00N 37°47' E 023°37'815.9
2018-Jun-21 15:30N 37°55' E 023°37'1 2.3
2018-Jun-21 14:58N 37°56' E 023°37'0 0.0
2018-Jun-21 14:28N 37°56' E 023°37'0 0.0
2018-Jun-21 13:58N 37°56' E 023°37'0 0.0
2018-Jun-21 13:28N 37°56' E 023°37'0 0.0
2018-Jun-21 12:58N 37°56' E 023°37'0 0.0
2018-Jun-21 12:28N 37°56' E 023°37'0 0.0
2018-Jun-21 11:58N 37°56' E 023°37'0 0.0
2018-Jun-21 11:28N 37°56' E 023°37'0 0.0
2018-Jun-21 10:58N 37°56' E 023°37'0 0.0
2018-Jun-21 10:28N 37°56' E 023°37'0 0.0
2018-Jun-21 09:58N 37°56' E 023°37'0 0.0
2018-Jun-21 09:28N 37°56' E 023°37'0 0.0
2018-Jun-21 08:58N 37°56' E 023°37'0 0.0
2018-Jun-21 08:28N 37°56' E 023°37'0 0.0
2018-Jun-21 07:58N 37°56' E 023°37'0 0.0
2018-Jun-21 07:28N 37°56' E 023°37'0 0.0
2018-Jun-21 06:58N 37°56' E 023°37'0 0.0
2018-Jun-21 06:28N 37°56' E 023°37'0 0.0
2018-Jun-21 05:58N 37°56' E 023°37'0 0.0
2018-Jun-21 05:28N 37°56' E 023°37'0 0.0
2018-Jun-21 04:58N 37°56' E 023°37'0 0.0
2018-Jun-21 04:28N 37°56' E 023°37'0 0.0
2018-Jun-21 03:58N 37°56' E 023°37'0 0.0
2018-Jun-21 03:28N 37°56' E 023°37'0 0.0
2018-Jun-21 02:58N 37°56' E 023°37'0 0.0
2018-Jun-21 02:28N 37°56' E 023°37'0 0.0
2018-Jun-21 02:00N 37°56' E 023°37'2 3.2
2018-Jun-21 01:30N 37°55' E 023°36'4 8.9
2018-Jun-21 01:00N 37°51' E 023°39'713.3
2018-Jun-21 00:30N 37°45' E 023°42'714.0
2018-Jun-21 00:00N 37°38' E 023°46'713.7
2018-Jun-20 23:31N 37°32' E 023°47'713.6
2018-Jun-20 23:00N 37°25' E 023°48'50 9.0
2018-Jun-20 17:30N 37°13' E 024°49'612.5
2018-Jun-20 17:00N 37°16' E 024°56'612.4
2018-Jun-20 16:29N 37°19' E 025°03'612.4
2018-Jun-20 16:00N 37°23' E 025°08'611.8
2018-Jun-20 15:29N 37°28' E 025°13'5 9.9
2018-Jun-20 15:00N 37°28' E 025°19'0 0.0
2018-Jun-20 14:28N 37°28' E 025°19'0 0.0
2018-Jun-20 13:58N 37°28' E 025°19'0 0.0
2018-Jun-20 13:28N 37°28' E 025°19'0 0.0
2018-Jun-20 12:58N 37°28' E 025°19'0 0.0
2018-Jun-20 12:28N 37°28' E 025°19'0 0.0
2018-Jun-20 11:58N 37°28' E 025°19'0 0.0
2018-Jun-20 11:28N 37°28' E 025°19'0 0.0
2018-Jun-20 10:58N 37°28' E 025°19'0 0.0
2018-Jun-20 10:28N 37°28' E 025°19'0 0.0
2018-Jun-20 09:58N 37°28' E 025°19'0 0.0
2018-Jun-20 09:28N 37°28' E 025°19'0 0.0
2018-Jun-20 08:58N 37°28' E 025°19'0 0.0
2018-Jun-20 08:25N 37°28' E 025°19'0 0.0
2018-Jun-20 07:58N 37°28' E 025°19'0 0.0
2018-Jun-20 07:28N 37°28' E 025°19'0 0.0
2018-Jun-20 06:58N 37°28' E 025°19'0 0.0
2018-Jun-20 06:28N 37°28' E 025°19'0 0.0
2018-Jun-20 05:58N 37°28' E 025°19'0 0.0
2018-Jun-20 05:28N 37°28' E 025°19'0 0.0
2018-Jun-20 04:58N 37°28' E 025°19'0 0.0
2018-Jun-20 04:28N 37°28' E 025°19'0 0.0
2018-Jun-20 03:58N 37°28' E 025°19'0 0.0
2018-Jun-20 03:28N 37°28' E 025°19'1 1.6
2018-Jun-20 02:59N 37°28' E 025°18'511.1
2018-Jun-20 02:30N 37°27' E 025°12'510.3
2018-Jun-20 02:00N 37°23' E 025°07'810.6
2018-Jun-20 01:16N 37°16' E 025°03'310.7
2018-Jun-20 01:00N 37°14' E 025°01'510.3
2018-Jun-20 00:30N 37°09' E 024°59'44211.0
2018-Jun-18 08:23N 37°51' E 015°44'918.4
2018-Jun-18 07:55N 37°57' E 015°36'820.0
2018-Jun-18 07:30N 38°05' E 015°35'816.8
2018-Jun-18 07:00N 38°13' E 015°36'713.5
2018-Jun-18 06:30N 38°19' E 015°40'1020.2
2018-Jun-18 06:00N 38°28' E 015°33'1220.4
2018-Jun-18 05:24N 38°39' E 015°27'14619.9
2018-Jun-17 22:05N 40°27' E 013°20'119.7
2018-Jun-17 22:00N 40°28' E 013°19'1419.5
2018-Jun-17 21:18N 40°38' E 013°07'1819.5
2018-Jun-17 20:23N 40°51' E 012°50'23 0.9
2018-Jun-16 19:53N 40°57' E 013°19'615.7
2018-Jun-16 19:30N 40°54' E 013°26'815.5
2018-Jun-16 19:00N 40°49' E 013°34'815.7
2018-Jun-16 18:30N 40°44' E 013°41'815.5
2018-Jun-16 18:00N 40°39' E 013°49'815.3
2018-Jun-16 17:28N 40°38' E 014°00'715.5
2018-Jun-16 17:00N 40°41' E 014°08'816.2
2018-Jun-16 16:30N 40°47' E 014°16'3 5.8
2018-Jun-16 15:58N 40°50' E 014°16'0 0.0
2018-Jun-16 15:28N 40°50' E 014°16'0 0.0
2018-Jun-16 14:58N 40°50' E 014°16'0 0.0
2018-Jun-16 14:28N 40°50' E 014°16'0 0.0
2018-Jun-16 13:58N 40°50' E 014°16'0 0.0
2018-Jun-16 13:28N 40°50' E 014°16'0 0.0
2018-Jun-16 12:58N 40°50' E 014°16'0 0.0
2018-Jun-16 12:28N 40°50' E 014°16'0 0.0
2018-Jun-16 11:58N 40°50' E 014°16'0 0.0
2018-Jun-16 11:28N 40°50' E 014°16'0 0.0
2018-Jun-16 10:58N 40°50' E 014°16'0 0.0
2018-Jun-16 10:28N 40°50' E 014°16'0 0.0
2018-Jun-16 09:58N 40°50' E 014°16'0 0.0
2018-Jun-16 09:28N 40°50' E 014°16'0 0.0
2018-Jun-16 08:58N 40°50' E 014°16'0 0.0
2018-Jun-16 08:28N 40°50' E 014°16'0 0.0
2018-Jun-16 07:55N 40°50' E 014°16'0 0.0
2018-Jun-16 07:28N 40°50' E 014°16'0 0.0
2018-Jun-16 06:58N 40°50' E 014°16'0 0.0
2018-Jun-16 06:28N 40°50' E 014°16'0 0.0
2018-Jun-16 05:58N 40°50' E 014°16'0 0.0
2018-Jun-16 05:28N 40°50' E 014°16'0 0.7
2018-Jun-16 05:00N 40°50' E 014°16'3 6.3
2018-Jun-16 04:31N 40°47' E 014°16'713.5
2018-Jun-16 04:00N 40°41' E 014°13'816.7
2018-Jun-16 03:30N 40°33' E 014°08'816.4
2018-Jun-16 03:00N 40°25' E 014°11'817.1
2018-Jun-16 02:31N 40°18' E 014°16'917.2
2018-Jun-16 02:01N 40°10' E 014°22'916.9
2018-Jun-16 01:29N 40°02' E 014°27'9917.4
2018-Jun-15 19:47N 38°37' E 015°32'717.6
2018-Jun-15 19:22N 38°30' E 015°36'617.7
2018-Jun-15 19:00N 38°24' E 015°40'1013.4
2018-Jun-15 18:14N 38°14' E 015°38'418.2
2018-Jun-15 18:00N 38°10' E 015°36'817.2
2018-Jun-15 17:30N 38°02' E 015°35'1116.7
2018-Jun-15 16:51N 37°52' E 015°42'1018.1
2018-Jun-15 16:16N 37°49' E 015°55'36916.2
2018-Jun-14 17:28N 37°19' E 023°38'818.1
2018-Jun-14 17:01N 37°27' E 023°41'918.5
2018-Jun-14 16:30N 37°36' E 023°42'918.4
2018-Jun-14 16:00N 37°45' E 023°39'917.3
2018-Jun-14 15:30N 37°53' E 023°36'3 6.5
2018-Jun-14 15:00N 37°56' E 023°38'0 0.1
2018-Jun-14 14:30N 37°56' E 023°38'0 0.0
2018-Jun-14 14:00N 37°56' E 023°38'0 0.0
2018-Jun-14 13:30N 37°56' E 023°38'0 0.0
2018-Jun-14 13:00N 37°56' E 023°38'0 0.0
2018-Jun-14 12:30N 37°56' E 023°38'0 0.0
2018-Jun-14 12:00N 37°56' E 023°38'0 0.0
2018-Jun-14 11:30N 37°56' E 023°38'0 0.0
2018-Jun-14 11:00N 37°56' E 023°38'0 0.0
2018-Jun-14 10:30N 37°56' E 023°38'0 0.0
2018-Jun-14 10:00N 37°56' E 023°38'0 0.0
2018-Jun-14 09:30N 37°56' E 023°38'0 0.0
2018-Jun-14 09:00N 37°56' E 023°38'0 0.0
2018-Jun-14 06:24N 37°56' E 023°38'0 0.0
2018-Jun-14 06:00N 37°56' E 023°38'0 0.0
2018-Jun-14 05:21N 37°56' E 023°38'0 0.0
2018-Jun-14 04:39N 37°56' E 023°38'0 0.0
2018-Jun-14 04:24N 37°56' E 023°38'0 0.0
2018-Jun-14 04:00N 37°56' E 023°38'0 0.0
2018-Jun-14 03:18N 37°56' E 023°38'0 0.0
2018-Jun-14 03:00N 37°56' E 023°38'0 0.0
2018-Jun-14 02:30N 37°56' E 023°38'0 0.3
2018-Jun-14 01:54N 37°56' E 023°38'2 5.7
2018-Jun-14 01:30N 37°54' E 023°37'3 6.6
2018-Jun-14 01:00N 37°51' E 023°39'612.4
2018-Jun-14 00:30N 37°46' E 023°42'63 8.8
2018-Jun-13 17:25N 37°13' E 024°49'511.8
2018-Jun-13 17:00N 37°15' E 024°54'612.6
2018-Jun-13 16:30N 37°18' E 025°01'612.6
2018-Jun-13 16:00N 37°23' E 025°07'612.3
2018-Jun-13 15:30N 37°28' E 025°11'611.0
2018-Jun-13 14:58N 37°28' E 025°19'0 0.5
2018-Jun-13 14:30N 37°28' E 025°19'0 0.0
2018-Jun-13 13:52N 37°28' E 025°19'0 0.0
2018-Jun-13 13:29N 37°28' E 025°19'0 0.1
2018-Jun-13 13:00N 37°27' E 025°19'0 0.1
2018-Jun-13 12:30N 37°27' E 025°19'0 0.1
2018-Jun-13 12:00N 37°28' E 025°19'0 0.1
2018-Jun-13 11:30N 37°27' E 025°19'0 0.0
2018-Jun-13 10:56N 37°27' E 025°19'0 0.0
2018-Jun-13 10:30N 37°27' E 025°19'0 0.1
2018-Jun-13 10:00N 37°27' E 025°19'0 0.0
2018-Jun-13 09:30N 37°27' E 025°19'0 0.0
2018-Jun-13 08:59N 37°27' E 025°19'0 0.1
2018-Jun-13 08:25N 37°28' E 025°19'0 0.0
2018-Jun-13 08:00N 37°28' E 025°19'0 0.0
2018-Jun-13 07:30N 37°28' E 025°19'0 0.0
2018-Jun-13 06:57N 37°28' E 025°19'0 0.0
2018-Jun-13 06:25N 37°28' E 025°19'0 0.2
2018-Jun-13 06:00N 37°28' E 025°19'0 0.1
2018-Jun-13 05:30N 37°28' E 025°19'0 0.0
2018-Jun-13 05:00N 37°28' E 025°19'0 0.0
2018-Jun-13 04:29N 37°28' E 025°19'0 0.0
2018-Jun-13 04:00N 37°28' E 025°19'1 2.9
2018-Jun-13 03:30N 37°28' E 025°17'5 9.5
2018-Jun-13 02:56N 37°31' E 025°23'612.9
2018-Jun-13 02:30N 37°31' E 025°29'611.9
2018-Jun-13 02:00N 37°28' E 025°36'812.2
2018-Jun-13 01:21N 37°22' E 025°42'412.5
2018-Jun-13 01:00N 37°19' E 025°46'7 6.7
2018-Jun-13 00:00N 37°12' E 025°48'83 3.3 340 / 151001.010.8 22.5 -21.1
2018-Jun-11 23:00N 36°12' E 027°00'   340 / 61002.0 5.4 23.1 -23.6
Track history (hours):
 
Tides and Currents Weather Stations Pressure Air Temp Water Temp Dewpoint Dewpoint Depression Visibility Wind Speed Wind Dir Waves Ship Positions

Jewel Of The Seas

Operator: Royal Caribbean Cruises Ltd

Last reported at 2018-Jun-21 18:19 UTC. Time now 2018-Jun-22 08:44 UTC.
Position N 37°12' E 023°41'.

Length 290 m; draft 8.6 m.

Type: Passenger vessel. MMSI: 311583000.

Date/timePositionNaut miles runAvg speedWind from/ knotsBaromVisibWave heightAir tempDewpointWater temp
2018-Jun-21 18:19N 37°12' E 023°41'515.7
2018-Jun-21 17:58N 37°17' E 023°43'1316.1
2018-Jun-21 17:10N 37°30' E 023°44'416.1
2018-Jun-21 16:55N 37°33' E 023°43'715.7
2018-Jun-21 16:31N 37°40' E 023°42'816.2
2018-Jun-21 16:00N 37°47' E 023°37'815.9
2018-Jun-21 15:30N 37°55' E 023°37'1 2.3
2018-Jun-21 14:58N 37°56' E 023°37'0 0.0
2018-Jun-21 14:28N 37°56' E 023°37'0 0.0
2018-Jun-21 13:58N 37°56' E 023°37'0 0.0
2018-Jun-21 13:28N 37°56' E 023°37'0 0.0
2018-Jun-21 12:58N 37°56' E 023°37'0 0.0
2018-Jun-21 12:28N 37°56' E 023°37'0 0.0
2018-Jun-21 11:58N 37°56' E 023°37'0 0.0
2018-Jun-21 11:28N 37°56' E 023°37'0 0.0
2018-Jun-21 10:58N 37°56' E 023°37'0 0.0
2018-Jun-21 10:28N 37°56' E 023°37'0 0.0
2018-Jun-21 09:58N 37°56' E 023°37'0 0.0
2018-Jun-21 09:28N 37°56' E 023°37'0 0.0
2018-Jun-21 08:58N 37°56' E 023°37'0 0.0
2018-Jun-21 08:28N 37°56' E 023°37'0 0.0
2018-Jun-21 07:58N 37°56' E 023°37'0 0.0
2018-Jun-21 07:28N 37°56' E 023°37'0 0.0
2018-Jun-21 06:58N 37°56' E 023°37'0 0.0
2018-Jun-21 06:28N 37°56' E 023°37'0 0.0
2018-Jun-21 05:58N 37°56' E 023°37'0 0.0
2018-Jun-21 05:28N 37°56' E 023°37'0 0.0
2018-Jun-21 04:58N 37°56' E 023°37'0 0.0
2018-Jun-21 04:28N 37°56' E 023°37'0 0.0
2018-Jun-21 03:58N 37°56' E 023°37'0 0.0
2018-Jun-21 03:28N 37°56' E 023°37'0 0.0
2018-Jun-21 02:58N 37°56' E 023°37'0 0.0
2018-Jun-21 02:28N 37°56' E 023°37'0 0.0
2018-Jun-21 02:00N 37°56' E 023°37'2 3.2
2018-Jun-21 01:30N 37°55' E 023°36'4 8.9
2018-Jun-21 01:00N 37°51' E 023°39'713.3
2018-Jun-21 00:30N 37°45' E 023°42'714.0
2018-Jun-21 00:00N 37°38' E 023°46'713.7
2018-Jun-20 23:31N 37°32' E 023°47'713.6
2018-Jun-20 23:00N 37°25' E 023°48'50 9.0
2018-Jun-20 17:30N 37°13' E 024°49'612.5
2018-Jun-20 17:00N 37°16' E 024°56'612.4
2018-Jun-20 16:29N 37°19' E 025°03'612.4
2018-Jun-20 16:00N 37°23' E 025°08'611.8
2018-Jun-20 15:29N 37°28' E 025°13'5 9.9
2018-Jun-20 15:00N 37°28' E 025°19'0 0.0
2018-Jun-20 14:28N 37°28' E 025°19'0 0.0
2018-Jun-20 13:58N 37°28' E 025°19'0 0.0
2018-Jun-20 13:28N 37°28' E 025°19'0 0.0
2018-Jun-20 12:58N 37°28' E 025°19'0 0.0
2018-Jun-20 12:28N 37°28' E 025°19'0 0.0
2018-Jun-20 11:58N 37°28' E 025°19'0 0.0
2018-Jun-20 11:28N 37°28' E 025°19'0 0.0
2018-Jun-20 10:58N 37°28' E 025°19'0 0.0
2018-Jun-20 10:28N 37°28' E 025°19'0 0.0
2018-Jun-20 09:58N 37°28' E 025°19'0 0.0
2018-Jun-20 09:28N 37°28' E 025°19'0 0.0
2018-Jun-20 08:58N 37°28' E 025°19'0 0.0
2018-Jun-20 08:25N 37°28' E 025°19'0 0.0
2018-Jun-20 07:58N 37°28' E 025°19'0 0.0
2018-Jun-20 07:28N 37°28' E 025°19'0 0.0
2018-Jun-20 06:58N 37°28' E 025°19'0 0.0
2018-Jun-20 06:28N 37°28' E 025°19'0 0.0
2018-Jun-20 05:58N 37°28' E 025°19'0 0.0
2018-Jun-20 05:28N 37°28' E 025°19'0 0.0
2018-Jun-20 04:58N 37°28' E 025°19'0 0.0
2018-Jun-20 04:28N 37°28' E 025°19'0 0.0
2018-Jun-20 03:58N 37°28' E 025°19'0 0.0
2018-Jun-20 03:28N 37°28' E 025°19'1 1.6
2018-Jun-20 02:59N 37°28' E 025°18'511.1
2018-Jun-20 02:30N 37°27' E 025°12'510.3
2018-Jun-20 02:00N 37°23' E 025°07'810.6
2018-Jun-20 01:16N 37°16' E 025°03'310.7
2018-Jun-20 01:00N 37°14' E 025°01'510.3
2018-Jun-20 00:30N 37°09' E 024°59'44211.0
2018-Jun-18 08:23N 37°51' E 015°44'918.4
2018-Jun-18 07:55N 37°57' E 015°36'820.0
2018-Jun-18 07:30N 38°05' E 015°35'816.8
2018-Jun-18 07:00N 38°13' E 015°36'713.5
2018-Jun-18 06:30N 38°19' E 015°40'1020.2
2018-Jun-18 06:00N 38°28' E 015°33'1220.4
2018-Jun-18 05:24N 38°39' E 015°27'14619.9
2018-Jun-17 22:05N 40°27' E 013°20'119.7
2018-Jun-17 22:00N 40°28' E 013°19'1419.5
2018-Jun-17 21:18N 40°38' E 013°07'1819.5
2018-Jun-17 20:23N 40°51' E 012°50'23 0.9
2018-Jun-16 19:53N 40°57' E 013°19'615.7
2018-Jun-16 19:30N 40°54' E 013°26'815.5
2018-Jun-16 19:00N 40°49' E 013°34'815.7
2018-Jun-16 18:30N 40°44' E 013°41'815.5
2018-Jun-16 18:00N 40°39' E 013°49'815.3
2018-Jun-16 17:28N 40°38' E 014°00'715.5
2018-Jun-16 17:00N 40°41' E 014°08'816.2
2018-Jun-16 16:30N 40°47' E 014°16'3 5.8
2018-Jun-16 15:58N 40°50' E 014°16'0 0.0
2018-Jun-16 15:28N 40°50' E 014°16'0 0.0
2018-Jun-16 14:58N 40°50' E 014°16'0 0.0
2018-Jun-16 14:28N 40°50' E 014°16'0 0.0
2018-Jun-16 13:58N 40°50' E 014°16'0 0.0
2018-Jun-16 13:28N 40°50' E 014°16'0 0.0
2018-Jun-16 12:58N 40°50' E 014°16'0 0.0
2018-Jun-16 12:28N 40°50' E 014°16'0 0.0
2018-Jun-16 11:58N 40°50' E 014°16'0 0.0
2018-Jun-16 11:28N 40°50' E 014°16'0 0.0
2018-Jun-16 10:58N 40°50' E 014°16'0 0.0
2018-Jun-16 10:28N 40°50' E 014°16'0 0.0
2018-Jun-16 09:58N 40°50' E 014°16'0 0.0
2018-Jun-16 09:28N 40°50' E 014°16'0 0.0
2018-Jun-16 08:58N 40°50' E 014°16'0 0.0
2018-Jun-16 08:28N 40°50' E 014°16'0 0.0
2018-Jun-16 07:55N 40°50' E 014°16'0 0.0
2018-Jun-16 07:28N 40°50' E 014°16'0 0.0
2018-Jun-16 06:58N 40°50' E 014°16'0 0.0
2018-Jun-16 06:28N 40°50' E 014°16'0 0.0
2018-Jun-16 05:58N 40°50' E 014°16'0 0.0
2018-Jun-16 05:28N 40°50' E 014°16'0 0.7
2018-Jun-16 05:00N 40°50' E 014°16'3 6.3
2018-Jun-16 04:31N 40°47' E 014°16'713.5
2018-Jun-16 04:00N 40°41' E 014°13'816.7
2018-Jun-16 03:30N 40°33' E 014°08'816.4
2018-Jun-16 03:00N 40°25' E 014°11'817.1
2018-Jun-16 02:31N 40°18' E 014°16'917.2
2018-Jun-16 02:01N 40°10' E 014°22'916.9
2018-Jun-16 01:29N 40°02' E 014°27'9917.4
2018-Jun-15 19:47N 38°37' E 015°32'717.6
2018-Jun-15 19:22N 38°30' E 015°36'617.7
2018-Jun-15 19:00N 38°24' E 015°40'1013.4
2018-Jun-15 18:14N 38°14' E 015°38'418.2
2018-Jun-15 18:00N 38°10' E 015°36'817.2
2018-Jun-15 17:30N 38°02' E 015°35'1116.7
2018-Jun-15 16:51N 37°52' E 015°42'1018.1
2018-Jun-15 16:16N 37°49' E 015°55'36916.2
2018-Jun-14 17:28N 37°19' E 023°38'818.1
2018-Jun-14 17:01N 37°27' E 023°41'918.5
2018-Jun-14 16:30N 37°36' E 023°42'918.4
2018-Jun-14 16:00N 37°45' E 023°39'917.3
2018-Jun-14 15:30N 37°53' E 023°36'3 6.5
2018-Jun-14 15:00N 37°56' E 023°38'0 0.1
2018-Jun-14 14:30N 37°56' E 023°38'0 0.0
2018-Jun-14 14:00N 37°56' E 023°38'0 0.0
2018-Jun-14 13:30N 37°56' E 023°38'0 0.0
2018-Jun-14 13:00N 37°56' E 023°38'0 0.0
2018-Jun-14 12:30N 37°56' E 023°38'0 0.0
2018-Jun-14 12:00N 37°56' E 023°38'0 0.0
2018-Jun-14 11:30N 37°56' E 023°38'0 0.0
2018-Jun-14 11:00N 37°56' E 023°38'0 0.0
2018-Jun-14 10:30N 37°56' E 023°38'0 0.0
2018-Jun-14 10:00N 37°56' E 023°38'0 0.0
2018-Jun-14 09:30N 37°56' E 023°38'0 0.0
2018-Jun-14 09:00N 37°56' E 023°38'0 0.0
2018-Jun-14 06:24N 37°56' E 023°38'0 0.0
2018-Jun-14 06:00N 37°56' E 023°38'0 0.0
2018-Jun-14 05:21N 37°56' E 023°38'0 0.0
2018-Jun-14 04:39N 37°56' E 023°38'0 0.0
2018-Jun-14 04:24N 37°56' E 023°38'0 0.0
2018-Jun-14 04:00N 37°56' E 023°38'0 0.0
2018-Jun-14 03:18N 37°56' E 023°38'0 0.0
2018-Jun-14 03:00N 37°56' E 023°38'0 0.0
2018-Jun-14 02:30N 37°56' E 023°38'0 0.3
2018-Jun-14 01:54N 37°56' E 023°38'2 5.7
2018-Jun-14 01:30N 37°54' E 023°37'3 6.6
2018-Jun-14 01:00N 37°51' E 023°39'612.4
2018-Jun-14 00:30N 37°46' E 023°42'63 8.8
2018-Jun-13 17:25N 37°13' E 024°49'511.8
2018-Jun-13 17:00N 37°15' E 024°54'612.6
2018-Jun-13 16:30N 37°18' E 025°01'612.6
2018-Jun-13 16:00N 37°23' E 025°07'612.3
2018-Jun-13 15:30N 37°28' E 025°11'611.0
2018-Jun-13 14:58N 37°28' E 025°19'0 0.5
2018-Jun-13 14:30N 37°28' E 025°19'0 0.0
2018-Jun-13 13:52N 37°28' E 025°19'0 0.0
2018-Jun-13 13:29N 37°28' E 025°19'0 0.1
2018-Jun-13 13:00N 37°27' E 025°19'0 0.1
2018-Jun-13 12:30N 37°27' E 025°19'0 0.1
2018-Jun-13 12:00N 37°28' E 025°19'0 0.1
2018-Jun-13 11:30N 37°27' E 025°19'0 0.0
2018-Jun-13 10:56N 37°27' E 025°19'0 0.0
2018-Jun-13 10:30N 37°27' E 025°19'0 0.1
2018-Jun-13 10:00N 37°27' E 025°19'0 0.0
2018-Jun-13 09:30N 37°27' E 025°19'0 0.0
2018-Jun-13 08:59N 37°27' E 025°19'0 0.1
2018-Jun-13 08:25N 37°28' E 025°19'0 0.0
2018-Jun-13 08:00N 37°28' E 025°19'0 0.0
2018-Jun-13 07:30N 37°28' E 025°19'0 0.0
2018-Jun-13 06:57N 37°28' E 025°19'0 0.0
2018-Jun-13 06:25N 37°28' E 025°19'0 0.2
2018-Jun-13 06:00N 37°28' E 025°19'0 0.1
2018-Jun-13 05:30N 37°28' E 025°19'0 0.0
2018-Jun-13 05:00N 37°28' E 025°19'0 0.0
2018-Jun-13 04:29N 37°28' E 025°19'0 0.0
2018-Jun-13 04:00N 37°28' E 025°19'1 2.9
2018-Jun-13 03:30N 37°28' E 025°17'5 9.5
2018-Jun-13 02:56N 37°31' E 025°23'612.9
2018-Jun-13 02:30N 37°31' E 025°29'611.9
2018-Jun-13 02:00N 37°28' E 025°36'812.2
2018-Jun-13 01:21N 37°22' E 025°42'412.5
2018-Jun-13 01:00N 37°19' E 025°46'7 6.7
2018-Jun-13 00:00N 37°12' E 025°48'83 3.3 340 / 151001.010.8 22.5 -21.1
2018-Jun-11 23:00N 36°12' E 027°00'   340 / 61002.0 5.4 23.1 -23.6

Dump ship's entire track history